sensor_id;sensor_type;location;lat;lon;timestamp;P1;durP1;ratioP1;P2;durP2;ratioP2
73900;SDS011;62235;52.160;7.526;2023-02-20T00:00:54;8.80;;;5.00;;
73900;SDS011;62235;52.160;7.526;2023-02-20T00:03:19;11.30;;;7.53;;
73900;SDS011;62235;52.160;7.526;2023-02-20T00:05:45;8.52;;;4.95;;
73900;SDS011;62235;52.160;7.526;2023-02-20T00:08:10;12.32;;;8.88;;
73900;SDS011;62235;52.160;7.526;2023-02-20T00:10:35;10.03;;;6.00;;
73900;SDS011;62235;52.160;7.526;2023-02-20T00:13:01;12.48;;;8.13;;
73900;SDS011;62235;52.160;7.526;2023-02-20T00:15:26;10.95;;;7.25;;
73900;SDS011;62235;52.160;7.526;2023-02-20T00:17:51;5.77;;;3.17;;
73900;SDS011;62235;52.160;7.526;2023-02-20T00:20:21;10.07;;;5.40;;
73900;SDS011;62235;52.160;7.526;2023-02-20T00:22:47;11.63;;;6.43;;
73900;SDS011;62235;52.160;7.526;2023-02-20T00:25:14;10.82;;;6.10;;
73900;SDS011;62235;52.160;7.526;2023-02-20T00:27:40;9.98;;;5.75;;
73900;SDS011;62235;52.160;7.526;2023-02-20T00:30:06;10.15;;;4.68;;
73900;SDS011;62235;52.160;7.526;2023-02-20T00:32:32;8.82;;;4.97;;
73900;SDS011;62235;52.160;7.526;2023-02-20T00:34:57;11.70;;;5.63;;
73900;SDS011;62235;52.160;7.526;2023-02-20T00:37:22;8.43;;;4.70;;
73900;SDS011;62235;52.160;7.526;2023-02-20T00:39:48;8.25;;;4.97;;
73900;SDS011;62235;52.160;7.526;2023-02-20T00:42:13;8.03;;;4.03;;
73900;SDS011;62235;52.160;7.526;2023-02-20T00:44:38;10.47;;;7.03;;
73900;SDS011;62235;52.160;7.526;2023-02-20T00:47:04;9.03;;;4.57;;
73900;SDS011;62235;52.160;7.526;2023-02-20T00:49:29;11.30;;;6.00;;
73900;SDS011;62235;52.160;7.526;2023-02-20T00:51:54;8.20;;;4.35;;
73900;SDS011;62235;52.160;7.526;2023-02-20T00:54:20;8.10;;;4.83;;
73900;SDS011;62235;52.160;7.526;2023-02-20T00:56:45;9.77;;;4.77;;
73900;SDS011;62235;52.160;7.526;2023-02-20T00:59:11;9.27;;;5.97;;
73900;SDS011;62235;52.160;7.526;2023-02-20T01:01:36;2.70;;;1.67;;
73900;SDS011;62235;52.160;7.526;2023-02-20T01:04:02;9.90;;;5.07;;
73900;SDS011;62235;52.160;7.526;2023-02-20T01:06:27;12.57;;;6.88;;
73900;SDS011;62235;52.160;7.526;2023-02-20T01:08:52;6.93;;;4.18;;
73900;SDS011;62235;52.160;7.526;2023-02-20T01:11:17;11.97;;;7.23;;
73900;SDS011;62235;52.160;7.526;2023-02-20T01:13:43;9.93;;;5.60;;
73900;SDS011;62235;52.160;7.526;2023-02-20T01:16:08;8.13;;;4.63;;
73900;SDS011;62235;52.160;7.526;2023-02-20T01:18:34;9.02;;;5.28;;
73900;SDS011;62235;52.160;7.526;2023-02-20T01:20:59;11.53;;;5.77;;
73900;SDS011;62235;52.160;7.526;2023-02-20T01:23:24;13.70;;;5.53;;
73900;SDS011;62235;52.160;7.526;2023-02-20T01:25:50;11.05;;;5.68;;
73900;SDS011;62235;52.160;7.526;2023-02-20T01:28:15;9.33;;;4.80;;
73900;SDS011;62235;52.160;7.526;2023-02-20T01:30:41;7.95;;;3.95;;
73900;SDS011;62235;52.160;7.526;2023-02-20T01:33:06;9.90;;;4.25;;
73900;SDS011;62235;52.160;7.526;2023-02-20T01:35:31;10.23;;;6.17;;
73900;SDS011;62235;52.160;7.526;2023-02-20T01:37:57;12.25;;;6.22;;
73900;SDS011;62235;52.160;7.526;2023-02-20T01:40:23;12.70;;;6.38;;
73900;SDS011;62235;52.160;7.526;2023-02-20T01:42:49;12.98;;;5.70;;
73900;SDS011;62235;52.160;7.526;2023-02-20T01:45:24;12.70;;;5.93;;
73900;SDS011;62235;52.160;7.526;2023-02-20T01:47:54;11.70;;;6.43;;
73900;SDS011;62235;52.160;7.526;2023-02-20T01:50:22;12.65;;;6.57;;
73900;SDS011;62235;52.160;7.526;2023-02-20T01:52:51;12.23;;;5.60;;
73900;SDS011;62235;52.160;7.526;2023-02-20T01:55:26;10.48;;;4.43;;
73900;SDS011;62235;52.160;7.526;2023-02-20T01:57:57;10.85;;;6.07;;
73900;SDS011;62235;52.160;7.526;2023-02-20T02:00:24;14.10;;;8.02;;
73900;SDS011;62235;52.160;7.526;2023-02-20T02:02:52;8.05;;;4.07;;
73900;SDS011;62235;52.160;7.526;2023-02-20T02:05:19;11.95;;;5.47;;
73900;SDS011;62235;52.160;7.526;2023-02-20T02:07:46;13.88;;;6.75;;
73900;SDS011;62235;52.160;7.526;2023-02-20T02:10:13;9.85;;;3.97;;
73900;SDS011;62235;52.160;7.526;2023-02-20T02:12:41;11.13;;;5.28;;
73900;SDS011;62235;52.160;7.526;2023-02-20T02:15:13;11.43;;;5.85;;
73900;SDS011;62235;52.160;7.526;2023-02-20T02:32:03;13.68;;;7.65;;
73900;SDS011;62235;52.160;7.526;2023-02-20T02:45:50;15.27;;;7.97;;
73900;SDS011;62235;52.160;7.526;2023-02-20T02:48:25;16.15;;;8.05;;
73900;SDS011;62235;52.160;7.526;2023-02-20T02:50:53;18.27;;;9.68;;
73900;SDS011;62235;52.160;7.526;2023-02-20T02:53:21;16.52;;;8.85;;
73900;SDS011;62235;52.160;7.526;2023-02-20T02:55:46;14.87;;;7.03;;
73900;SDS011;62235;52.160;7.526;2023-02-20T02:58:12;16.37;;;8.67;;
73900;SDS011;62235;52.160;7.526;2023-02-20T03:00:39;14.43;;;6.68;;
73900;SDS011;62235;52.160;7.526;2023-02-20T03:03:24;14.48;;;6.00;;
73900;SDS011;62235;52.160;7.526;2023-02-20T03:08:43;10.90;;;5.18;;
73900;SDS011;62235;52.160;7.526;2023-02-20T03:13:45;15.88;;;7.35;;
73900;SDS011;62235;52.160;7.526;2023-02-20T03:16:47;9.88;;;5.20;;
73900;SDS011;62235;52.160;7.526;2023-02-20T03:19:16;14.25;;;6.13;;
73900;SDS011;62235;52.160;7.526;2023-02-20T03:21:46;16.52;;;7.63;;
73900;SDS011;62235;52.160;7.526;2023-02-20T03:24:12;17.85;;;9.10;;
73900;SDS011;62235;52.160;7.526;2023-02-20T03:26:39;16.08;;;7.60;;
73900;SDS011;62235;52.160;7.526;2023-02-20T03:31:51;14.02;;;5.47;;
73900;SDS011;62235;52.160;7.526;2023-02-20T03:34:39;18.60;;;8.35;;
73900;SDS011;62235;52.160;7.526;2023-02-20T03:37:23;13.07;;;5.00;;
73900;SDS011;62235;52.160;7.526;2023-02-20T03:40:08;15.70;;;8.55;;
73900;SDS011;62235;52.160;7.526;2023-02-20T03:42:56;15.50;;;7.20;;
73900;SDS011;62235;52.160;7.526;2023-02-20T03:45:41;14.52;;;5.85;;
73900;SDS011;62235;52.160;7.526;2023-02-20T03:48:09;11.45;;;4.90;;
73900;SDS011;62235;52.160;7.526;2023-02-20T03:50:39;17.85;;;8.65;;
73900;SDS011;62235;52.160;7.526;2023-02-20T03:53:23;18.30;;;8.57;;
73900;SDS011;62235;52.160;7.526;2023-02-20T03:55:49;14.68;;;7.93;;
73900;SDS011;62235;52.160;7.526;2023-02-20T03:58:17;20.77;;;7.85;;
73900;SDS011;62235;52.160;7.526;2023-02-20T04:00:46;13.63;;;5.40;;
73900;SDS011;62235;52.160;7.526;2023-02-20T04:03:14;12.88;;;5.72;;
73900;SDS011;62235;52.160;7.526;2023-02-20T04:05:41;11.35;;;5.38;;
73900;SDS011;62235;52.160;7.526;2023-02-20T04:08:22;16.50;;;7.82;;
73900;SDS011;62235;52.160;7.526;2023-02-20T04:10:51;12.57;;;5.97;;
73900;SDS011;62235;52.160;7.526;2023-02-20T04:13:21;19.85;;;10.23;;
73900;SDS011;62235;52.160;7.526;2023-02-20T04:15:48;14.80;;;5.80;;
73900;SDS011;62235;52.160;7.526;2023-02-20T04:18:14;11.70;;;4.97;;
73900;SDS011;62235;52.160;7.526;2023-02-20T04:20:45;20.88;;;8.57;;
73900;SDS011;62235;52.160;7.526;2023-02-20T04:23:13;5.45;;;2.22;;
73900;SDS011;62235;52.160;7.526;2023-02-20T04:25:45;23.10;;;9.32;;
73900;SDS011;62235;52.160;7.526;2023-02-20T04:28:11;16.17;;;7.43;;
73900;SDS011;62235;52.160;7.526;2023-02-20T04:30:37;14.13;;;6.18;;
73900;SDS011;62235;52.160;7.526;2023-02-20T04:33:03;15.13;;;6.35;;
73900;SDS011;62235;52.160;7.526;2023-02-20T04:35:28;13.80;;;6.50;;
73900;SDS011;62235;52.160;7.526;2023-02-20T04:37:53;22.83;;;11.77;;
73900;SDS011;62235;52.160;7.526;2023-02-20T04:40:20;10.73;;;5.18;;
73900;SDS011;62235;52.160;7.526;2023-02-20T04:42:47;13.73;;;7.15;;
73900;SDS011;62235;52.160;7.526;2023-02-20T04:45:12;12.67;;;5.87;;
73900;SDS011;62235;52.160;7.526;2023-02-20T04:47:38;17.23;;;8.50;;
73900;SDS011;62235;52.160;7.526;2023-02-20T04:50:03;19.65;;;9.38;;
73900;SDS011;62235;52.160;7.526;2023-02-20T04:52:29;16.50;;;9.52;;
73900;SDS011;62235;52.160;7.526;2023-02-20T04:54:54;17.75;;;9.93;;
73900;SDS011;62235;52.160;7.526;2023-02-20T04:57:19;16.30;;;7.57;;
73900;SDS011;62235;52.160;7.526;2023-02-20T04:59:46;14.68;;;6.85;;
73900;SDS011;62235;52.160;7.526;2023-02-20T05:02:11;21.35;;;11.05;;
73900;SDS011;62235;52.160;7.526;2023-02-20T05:04:37;14.80;;;7.50;;
73900;SDS011;62235;52.160;7.526;2023-02-20T05:07:02;19.23;;;7.25;;
73900;SDS011;62235;52.160;7.526;2023-02-20T05:09:28;17.60;;;8.55;;
73900;SDS011;62235;52.160;7.526;2023-02-20T05:11:53;19.92;;;10.27;;
73900;SDS011;62235;52.160;7.526;2023-02-20T05:14:20;18.60;;;9.05;;
73900;SDS011;62235;52.160;7.526;2023-02-20T05:16:46;20.25;;;9.68;;
73900;SDS011;62235;52.160;7.526;2023-02-20T05:19:12;19.90;;;10.93;;
73900;SDS011;62235;52.160;7.526;2023-02-20T05:21:40;19.33;;;9.18;;
73900;SDS011;62235;52.160;7.526;2023-02-20T05:24:25;17.10;;;7.82;;
73900;SDS011;62235;52.160;7.526;2023-02-20T05:26:52;18.90;;;9.27;;
73900;SDS011;62235;52.160;7.526;2023-02-20T05:29:17;18.13;;;9.52;;
73900;SDS011;62235;52.160;7.526;2023-02-20T05:31:42;14.67;;;6.93;;
73900;SDS011;62235;52.160;7.526;2023-02-20T05:34:08;18.43;;;7.43;;
73900;SDS011;62235;52.160;7.526;2023-02-20T05:36:33;25.40;;;14.45;;
73900;SDS011;62235;52.160;7.526;2023-02-20T05:38:59;23.08;;;10.38;;
73900;SDS011;62235;52.160;7.526;2023-02-20T05:41:24;22.50;;;9.52;;
73900;SDS011;62235;52.160;7.526;2023-02-20T05:43:50;25.83;;;12.93;;
73900;SDS011;62235;52.160;7.526;2023-02-20T05:46:15;23.95;;;11.43;;
73900;SDS011;62235;52.160;7.526;2023-02-20T05:48:41;24.88;;;11.75;;
73900;SDS011;62235;52.160;7.526;2023-02-20T05:51:07;21.95;;;10.55;;
73900;SDS011;62235;52.160;7.526;2023-02-20T05:53:32;25.93;;;11.47;;
73900;SDS011;62235;52.160;7.526;2023-02-20T05:55:58;25.10;;;10.85;;
73900;SDS011;62235;52.160;7.526;2023-02-20T05:58:23;29.27;;;15.13;;
73900;SDS011;62235;52.160;7.526;2023-02-20T06:00:49;29.63;;;14.80;;
73900;SDS011;62235;52.160;7.526;2023-02-20T06:03:15;25.67;;;11.88;;
73900;SDS011;62235;52.160;7.526;2023-02-20T06:05:40;25.98;;;12.27;;
73900;SDS011;62235;52.160;7.526;2023-02-20T06:08:06;27.52;;;12.75;;
73900;SDS011;62235;52.160;7.526;2023-02-20T06:10:31;22.13;;;11.68;;
73900;SDS011;62235;52.160;7.526;2023-02-20T06:12:57;26.60;;;12.40;;
73900;SDS011;62235;52.160;7.526;2023-02-20T06:15:22;26.58;;;12.13;;
73900;SDS011;62235;52.160;7.526;2023-02-20T06:17:48;26.17;;;10.82;;
73900;SDS011;62235;52.160;7.526;2023-02-20T06:20:13;34.90;;;14.70;;
73900;SDS011;62235;52.160;7.526;2023-02-20T06:22:39;33.42;;;16.65;;
73900;SDS011;62235;52.160;7.526;2023-02-20T06:25:05;27.27;;;12.35;;
73900;SDS011;62235;52.160;7.526;2023-02-20T06:27:30;26.75;;;11.25;;
73900;SDS011;62235;52.160;7.526;2023-02-20T06:29:56;30.98;;;15.80;;
73900;SDS011;62235;52.160;7.526;2023-02-20T06:32:21;35.43;;;16.30;;
73900;SDS011;62235;52.160;7.526;2023-02-20T06:34:47;31.38;;;13.73;;
73900;SDS011;62235;52.160;7.526;2023-02-20T06:37:13;22.98;;;10.27;;
73900;SDS011;62235;52.160;7.526;2023-02-20T06:39:38;31.02;;;11.52;;
73900;SDS011;62235;52.160;7.526;2023-02-20T06:42:04;37.97;;;13.52;;
73900;SDS011;62235;52.160;7.526;2023-02-20T06:44:30;36.83;;;17.20;;
73900;SDS011;62235;52.160;7.526;2023-02-20T06:46:57;30.02;;;12.50;;
73900;SDS011;62235;52.160;7.526;2023-02-20T06:49:23;30.90;;;11.98;;
73900;SDS011;62235;52.160;7.526;2023-02-20T06:51:51;33.42;;;16.10;;
73900;SDS011;62235;52.160;7.526;2023-02-20T06:54:16;33.08;;;15.57;;
73900;SDS011;62235;52.160;7.526;2023-02-20T06:56:44;43.08;;;18.80;;
73900;SDS011;62235;52.160;7.526;2023-02-20T06:59:09;35.42;;;17.90;;
73900;SDS011;62235;52.160;7.526;2023-02-20T07:01:41;32.00;;;14.50;;
73900;SDS011;62235;52.160;7.526;2023-02-20T07:04:20;32.42;;;13.80;;
73900;SDS011;62235;52.160;7.526;2023-02-20T07:06:47;34.08;;;15.18;;
73900;SDS011;62235;52.160;7.526;2023-02-20T07:09:13;34.90;;;13.90;;
73900;SDS011;62235;52.160;7.526;2023-02-20T07:11:39;40.08;;;21.02;;
73900;SDS011;62235;52.160;7.526;2023-02-20T07:14:04;23.65;;;10.57;;
73900;SDS011;62235;52.160;7.526;2023-02-20T07:16:29;28.33;;;13.23;;
73900;SDS011;62235;52.160;7.526;2023-02-20T07:18:55;32.45;;;13.30;;
73900;SDS011;62235;52.160;7.526;2023-02-20T07:21:21;40.17;;;18.08;;
73900;SDS011;62235;52.160;7.526;2023-02-20T07:23:46;32.35;;;13.80;;
73900;SDS011;62235;52.160;7.526;2023-02-20T07:26:19;33.60;;;15.55;;
73900;SDS011;62235;52.160;7.526;2023-02-20T07:28:46;32.97;;;16.23;;
73900;SDS011;62235;52.160;7.526;2023-02-20T07:31:12;35.50;;;16.50;;
73900;SDS011;62235;52.160;7.526;2023-02-20T07:33:37;34.33;;;17.10;;
73900;SDS011;62235;52.160;7.526;2023-02-20T07:36:03;31.98;;;14.20;;
73900;SDS011;62235;52.160;7.526;2023-02-20T07:38:28;32.47;;;15.68;;
73900;SDS011;62235;52.160;7.526;2023-02-20T07:40:54;36.20;;;21.27;;
73900;SDS011;62235;52.160;7.526;2023-02-20T07:43:19;34.30;;;14.50;;
73900;SDS011;62235;52.160;7.526;2023-02-20T07:45:44;26.65;;;12.43;;
73900;SDS011;62235;52.160;7.526;2023-02-20T07:48:10;28.70;;;11.82;;
73900;SDS011;62235;52.160;7.526;2023-02-20T07:50:35;32.33;;;13.52;;
73900;SDS011;62235;52.160;7.526;2023-02-20T07:53:01;31.27;;;14.73;;
73900;SDS011;62235;52.160;7.526;2023-02-20T07:55:26;28.98;;;16.13;;
73900;SDS011;62235;52.160;7.526;2023-02-20T07:57:51;29.52;;;12.02;;
73900;SDS011;62235;52.160;7.526;2023-02-20T08:00:18;30.52;;;13.60;;
73900;SDS011;62235;52.160;7.526;2023-02-20T08:02:44;19.88;;;8.65;;
73900;SDS011;62235;52.160;7.526;2023-02-20T08:05:10;30.92;;;14.40;;
73900;SDS011;62235;52.160;7.526;2023-02-20T08:07:35;26.40;;;10.95;;
73900;SDS011;62235;52.160;7.526;2023-02-20T08:10:02;26.15;;;10.90;;
73900;SDS011;62235;52.160;7.526;2023-02-20T08:12:27;29.88;;;11.10;;
73900;SDS011;62235;52.160;7.526;2023-02-20T08:14:53;26.33;;;11.63;;
73900;SDS011;62235;52.160;7.526;2023-02-20T08:17:18;32.07;;;13.80;;
73900;SDS011;62235;52.160;7.526;2023-02-20T08:19:43;37.08;;;22.75;;
73900;SDS011;62235;52.160;7.526;2023-02-20T08:22:09;31.10;;;14.82;;
73900;SDS011;62235;52.160;7.526;2023-02-20T08:24:34;32.92;;;15.65;;
73900;SDS011;62235;52.160;7.526;2023-02-20T08:27:00;29.38;;;15.23;;
73900;SDS011;62235;52.160;7.526;2023-02-20T08:29:25;27.77;;;13.30;;
73900;SDS011;62235;52.160;7.526;2023-02-20T08:31:51;27.20;;;12.10;;
73900;SDS011;62235;52.160;7.526;2023-02-20T08:34:16;26.58;;;10.65;;
73900;SDS011;62235;52.160;7.526;2023-02-20T08:36:41;28.55;;;14.48;;
73900;SDS011;62235;52.160;7.526;2023-02-20T08:39:07;23.65;;;9.48;;
73900;SDS011;62235;52.160;7.526;2023-02-20T08:41:32;31.57;;;13.13;;
73900;SDS011;62235;52.160;7.526;2023-02-20T08:43:58;36.13;;;16.33;;
73900;SDS011;62235;52.160;7.526;2023-02-20T08:46:23;26.20;;;12.88;;
73900;SDS011;62235;52.160;7.526;2023-02-20T08:48:49;33.40;;;14.67;;
73900;SDS011;62235;52.160;7.526;2023-02-20T08:51:17;31.70;;;14.13;;
73900;SDS011;62235;52.160;7.526;2023-02-20T08:56:08;32.70;;;14.93;;
73900;SDS011;62235;52.160;7.526;2023-02-20T08:58:34;29.85;;;14.23;;
73900;SDS011;62235;52.160;7.526;2023-02-20T09:00:59;21.40;;;9.80;;
73900;SDS011;62235;52.160;7.526;2023-02-20T09:03:24;30.92;;;15.45;;
73900;SDS011;62235;52.160;7.526;2023-02-20T09:05:51;22.67;;;9.13;;
73900;SDS011;62235;52.160;7.526;2023-02-20T09:08:16;33.47;;;19.10;;
73900;SDS011;62235;52.160;7.526;2023-02-20T09:10:42;25.97;;;10.23;;
73900;SDS011;62235;52.160;7.526;2023-02-20T09:13:07;21.77;;;9.50;;
73900;SDS011;62235;52.160;7.526;2023-02-20T09:15:33;21.52;;;9.07;;
73900;SDS011;62235;52.160;7.526;2023-02-20T09:18:03;23.15;;;9.60;;
73900;SDS011;62235;52.160;7.526;2023-02-20T09:20:30;26.20;;;11.55;;
73900;SDS011;62235;52.160;7.526;2023-02-20T09:22:57;21.38;;;9.32;;
73900;SDS011;62235;52.160;7.526;2023-02-20T09:25:23;19.42;;;8.20;;
73900;SDS011;62235;52.160;7.526;2023-02-20T09:27:49;19.90;;;7.78;;
73900;SDS011;62235;52.160;7.526;2023-02-20T09:30:15;21.92;;;10.00;;
73900;SDS011;62235;52.160;7.526;2023-02-20T09:32:43;25.92;;;12.13;;
73900;SDS011;62235;52.160;7.526;2023-02-20T09:35:13;22.95;;;9.73;;
73900;SDS011;62235;52.160;7.526;2023-02-20T09:37:50;26.65;;;9.70;;
73900;SDS011;62235;52.160;7.526;2023-02-20T09:40:16;35.10;;;17.15;;
73900;SDS011;62235;52.160;7.526;2023-02-20T09:42:50;27.27;;;14.07;;
73900;SDS011;62235;52.160;7.526;2023-02-20T09:45:19;21.85;;;9.45;;
73900;SDS011;62235;52.160;7.526;2023-02-20T09:50:42;25.83;;;9.32;;
73900;SDS011;62235;52.160;7.526;2023-02-20T09:55:55;24.85;;;12.27;;
73900;SDS011;62235;52.160;7.526;2023-02-20T09:58:25;31.15;;;15.50;;
73900;SDS011;62235;52.160;7.526;2023-02-20T10:00:55;31.85;;;12.95;;
73900;SDS011;62235;52.160;7.526;2023-02-20T10:06:17;20.50;;;8.77;;
73900;SDS011;62235;52.160;7.526;2023-02-20T10:08:43;22.83;;;9.25;;
73900;SDS011;62235;52.160;7.526;2023-02-20T10:11:15;26.90;;;14.18;;
73900;SDS011;62235;52.160;7.526;2023-02-20T10:16:50;18.70;;;8.70;;
73900;SDS011;62235;52.160;7.526;2023-02-20T10:19:26;19.75;;;9.55;;
73900;SDS011;62235;52.160;7.526;2023-02-20T10:22:13;28.83;;;12.30;;
73900;SDS011;62235;52.160;7.526;2023-02-20T10:25:00;24.58;;;11.70;;
73900;SDS011;62235;52.160;7.526;2023-02-20T10:27:46;33.30;;;16.02;;
73900;SDS011;62235;52.160;7.526;2023-02-20T10:30:17;23.58;;;10.43;;
73900;SDS011;62235;52.160;7.526;2023-02-20T10:32:48;26.83;;;10.82;;
73900;SDS011;62235;52.160;7.526;2023-02-20T10:35:21;28.77;;;11.77;;
73900;SDS011;62235;52.160;7.526;2023-02-20T10:37:53;21.85;;;9.90;;
73900;SDS011;62235;52.160;7.526;2023-02-20T10:40:22;24.10;;;11.57;;
73900;SDS011;62235;52.160;7.526;2023-02-20T10:43:01;27.17;;;11.68;;
73900;SDS011;62235;52.160;7.526;2023-02-20T10:45:38;24.42;;;11.55;;
73900;SDS011;62235;52.160;7.526;2023-02-20T10:48:10;26.65;;;10.80;;
73900;SDS011;62235;52.160;7.526;2023-02-20T10:53:41;28.02;;;13.60;;
73900;SDS011;62235;52.160;7.526;2023-02-20T11:01:14;28.33;;;13.07;;
73900;SDS011;62235;52.160;7.526;2023-02-20T11:03:51;25.77;;;12.68;;
73900;SDS011;62235;52.160;7.526;2023-02-20T11:06:20;32.38;;;11.40;;
73900;SDS011;62235;52.160;7.526;2023-02-20T11:08:47;27.90;;;9.73;;
73900;SDS011;62235;52.160;7.526;2023-02-20T11:13:58;26.73;;;13.70;;
73900;SDS011;62235;52.160;7.526;2023-02-20T11:16:32;23.17;;;11.18;;
73900;SDS011;62235;52.160;7.526;2023-02-20T11:19:06;23.02;;;9.40;;
73900;SDS011;62235;52.160;7.526;2023-02-20T11:21:41;16.75;;;6.97;;
73900;SDS011;62235;52.160;7.526;2023-02-20T11:26:59;34.05;;;21.30;;
73900;SDS011;62235;52.160;7.526;2023-02-20T11:29:29;25.15;;;10.68;;
73900;SDS011;62235;52.160;7.526;2023-02-20T11:34:47;27.95;;;13.00;;
73900;SDS011;62235;52.160;7.526;2023-02-20T11:37:13;30.73;;;15.02;;
73900;SDS011;62235;52.160;7.526;2023-02-20T11:39:44;17.30;;;7.80;;
73900;SDS011;62235;52.160;7.526;2023-02-20T11:42:14;20.17;;;8.00;;
73900;SDS011;62235;52.160;7.526;2023-02-20T11:44:41;31.30;;;14.02;;
73900;SDS011;62235;52.160;7.526;2023-02-20T11:49:43;30.40;;;14.00;;
73900;SDS011;62235;52.160;7.526;2023-02-20T11:52:16;30.25;;;13.60;;
73900;SDS011;62235;52.160;7.526;2023-02-20T11:54:43;27.60;;;13.20;;
73900;SDS011;62235;52.160;7.526;2023-02-20T11:59:42;26.58;;;13.15;;
73900;SDS011;62235;52.160;7.526;2023-02-20T12:05:22;29.93;;;12.40;;
73900;SDS011;62235;52.160;7.526;2023-02-20T12:07:39;32.78;;;12.10;;
73900;SDS011;62235;52.160;7.526;2023-02-20T12:12:53;28.77;;;13.43;;
73900;SDS011;62235;52.160;7.526;2023-02-20T12:15:20;26.17;;;12.30;;
73900;SDS011;62235;52.160;7.526;2023-02-20T12:20:24;25.23;;;12.93;;
73900;SDS011;62235;52.160;7.526;2023-02-20T12:28:26;30.67;;;13.52;;
73900;SDS011;62235;52.160;7.526;2023-02-20T12:46:54;27.70;;;12.27;;
73900;SDS011;62235;52.160;7.526;2023-02-20T12:52:22;26.35;;;9.70;;
73900;SDS011;62235;52.160;7.526;2023-02-20T13:00:25;32.55;;;13.30;;
73900;SDS011;62235;52.160;7.526;2023-02-20T13:02:58;25.13;;;10.45;;
73900;SDS011;62235;52.160;7.526;2023-02-20T13:05:26;24.88;;;11.80;;
73900;SDS011;62235;52.160;7.526;2023-02-20T13:07:54;23.02;;;9.38;;
73900;SDS011;62235;52.160;7.526;2023-02-20T13:10:24;22.75;;;8.63;;
73900;SDS011;62235;52.160;7.526;2023-02-20T13:12:52;21.27;;;9.38;;
73900;SDS011;62235;52.160;7.526;2023-02-20T13:15:28;25.10;;;12.02;;
73900;SDS011;62235;52.160;7.526;2023-02-20T13:17:59;17.60;;;8.15;;
73900;SDS011;62235;52.160;7.526;2023-02-20T13:20:32;24.80;;;13.65;;
73900;SDS011;62235;52.160;7.526;2023-02-20T13:23:24;16.35;;;7.15;;
73900;SDS011;62235;52.160;7.526;2023-02-20T13:25:48;17.27;;;6.53;;
73900;SDS011;62235;52.160;7.526;2023-02-20T13:31:06;21.30;;;11.27;;
73900;SDS011;62235;52.160;7.526;2023-02-20T13:33:35;23.58;;;11.05;;
73900;SDS011;62235;52.160;7.526;2023-02-20T13:36:02;20.38;;;9.50;;
73900;SDS011;62235;52.160;7.526;2023-02-20T13:38:29;18.85;;;7.82;;
73900;SDS011;62235;52.160;7.526;2023-02-20T13:53:52;15.20;;;5.65;;
73900;SDS011;62235;52.160;7.526;2023-02-20T13:59:03;17.02;;;7.32;;
73900;SDS011;62235;52.160;7.526;2023-02-20T14:04:20;21.33;;;7.22;;
73900;SDS011;62235;52.160;7.526;2023-02-20T14:06:50;18.85;;;5.95;;
73900;SDS011;62235;52.160;7.526;2023-02-20T14:09:18;20.13;;;7.75;;
73900;SDS011;62235;52.160;7.526;2023-02-20T14:11:51;15.45;;;7.85;;
73900;SDS011;62235;52.160;7.526;2023-02-20T14:14:26;20.65;;;9.57;;
73900;SDS011;62235;52.160;7.526;2023-02-20T14:17:01;8.85;;;4.53;;
73900;SDS011;62235;52.160;7.526;2023-02-20T14:19:28;20.70;;;9.45;;
73900;SDS011;62235;52.160;7.526;2023-02-20T14:21:54;14.13;;;5.55;;
73900;SDS011;62235;52.160;7.526;2023-02-20T14:24:21;16.35;;;5.47;;
73900;SDS011;62235;52.160;7.526;2023-02-20T14:26:51;12.52;;;5.93;;
73900;SDS011;62235;52.160;7.526;2023-02-20T14:29:21;14.60;;;6.25;;
73900;SDS011;62235;52.160;7.526;2023-02-20T14:31:49;8.88;;;4.43;;
73900;SDS011;62235;52.160;7.526;2023-02-20T14:34:18;14.07;;;6.43;;
73900;SDS011;62235;52.160;7.526;2023-02-20T14:36:54;11.80;;;5.28;;
73900;SDS011;62235;52.160;7.526;2023-02-20T14:42:04;13.07;;;6.10;;
73900;SDS011;62235;52.160;7.526;2023-02-20T14:44:31;12.68;;;6.20;;
73900;SDS011;62235;52.160;7.526;2023-02-20T14:47:05;10.90;;;5.18;;
73900;SDS011;62235;52.160;7.526;2023-02-20T14:49:33;11.43;;;4.50;;
73900;SDS011;62235;52.160;7.526;2023-02-20T14:54:33;7.95;;;4.38;;
73900;SDS011;62235;52.160;7.526;2023-02-20T14:56:58;14.53;;;6.27;;
73900;SDS011;62235;52.160;7.526;2023-02-20T14:59:32;9.38;;;4.60;;
73900;SDS011;62235;52.160;7.526;2023-02-20T15:02:00;9.32;;;3.55;;
73900;SDS011;62235;52.160;7.526;2023-02-20T15:04:27;8.05;;;3.10;;
73900;SDS011;62235;52.160;7.526;2023-02-20T15:06:54;15.35;;;6.53;;
73900;SDS011;62235;52.160;7.526;2023-02-20T15:09:34;13.30;;;5.13;;
73900;SDS011;62235;52.160;7.526;2023-02-20T15:12:01;10.85;;;6.75;;
73900;SDS011;62235;52.160;7.526;2023-02-20T15:14:30;10.75;;;5.30;;
73900;SDS011;62235;52.160;7.526;2023-02-20T15:17:07;11.93;;;5.07;;
73900;SDS011;62235;52.160;7.526;2023-02-20T15:19:33;11.88;;;6.03;;
73900;SDS011;62235;52.160;7.526;2023-02-20T15:22:02;6.00;;;3.38;;
73900;SDS011;62235;52.160;7.526;2023-02-20T15:27:07;6.40;;;2.47;;
73900;SDS011;62235;52.160;7.526;2023-02-20T15:29:34;9.60;;;4.72;;
73900;SDS011;62235;52.160;7.526;2023-02-20T15:32:20;10.65;;;4.50;;
73900;SDS011;62235;52.160;7.526;2023-02-20T15:34:51;18.25;;;6.47;;
73900;SDS011;62235;52.160;7.526;2023-02-20T15:37:26;12.55;;;6.75;;
73900;SDS011;62235;52.160;7.526;2023-02-20T15:39:53;8.32;;;3.45;;
73900;SDS011;62235;52.160;7.526;2023-02-20T15:42:20;8.40;;;4.65;;
73900;SDS011;62235;52.160;7.526;2023-02-20T15:44:47;8.18;;;3.97;;
73900;SDS011;62235;52.160;7.526;2023-02-20T15:47:12;10.25;;;4.97;;
73900;SDS011;62235;52.160;7.526;2023-02-20T15:49:38;7.05;;;3.97;;
73900;SDS011;62235;52.160;7.526;2023-02-20T15:52:04;9.02;;;4.10;;
73900;SDS011;62235;52.160;7.526;2023-02-20T15:54:31;11.15;;;4.57;;
73900;SDS011;62235;52.160;7.526;2023-02-20T15:56:56;9.70;;;5.03;;
73900;SDS011;62235;52.160;7.526;2023-02-20T15:59:22;13.35;;;6.20;;
73900;SDS011;62235;52.160;7.526;2023-02-20T16:01:47;8.70;;;4.15;;
73900;SDS011;62235;52.160;7.526;2023-02-20T16:04:13;15.43;;;7.03;;
73900;SDS011;62235;52.160;7.526;2023-02-20T16:06:39;13.77;;;5.95;;
73900;SDS011;62235;52.160;7.526;2023-02-20T16:09:06;16.45;;;7.40;;
73900;SDS011;62235;52.160;7.526;2023-02-20T16:11:37;7.90;;;3.88;;
73900;SDS011;62235;52.160;7.526;2023-02-20T16:14:04;20.30;;;8.30;;
73900;SDS011;62235;52.160;7.526;2023-02-20T16:16:34;9.25;;;4.57;;
73900;SDS011;62235;52.160;7.526;2023-02-20T16:19:01;8.35;;;3.63;;
73900;SDS011;62235;52.160;7.526;2023-02-20T16:21:28;12.95;;;5.70;;
73900;SDS011;62235;52.160;7.526;2023-02-20T16:23:53;13.05;;;6.50;;
73900;SDS011;62235;52.160;7.526;2023-02-20T16:26:20;13.32;;;5.82;;
73900;SDS011;62235;52.160;7.526;2023-02-20T16:28:49;13.20;;;6.97;;
73900;SDS011;62235;52.160;7.526;2023-02-20T16:31:17;9.45;;;5.55;;
73900;SDS011;62235;52.160;7.526;2023-02-20T16:33:42;13.40;;;5.77;;
73900;SDS011;62235;52.160;7.526;2023-02-20T16:36:07;15.60;;;7.22;;
73900;SDS011;62235;52.160;7.526;2023-02-20T16:38:33;18.15;;;9.27;;
73900;SDS011;62235;52.160;7.526;2023-02-20T16:40:58;15.63;;;7.50;;
73900;SDS011;62235;52.160;7.526;2023-02-20T16:43:27;19.48;;;9.05;;
73900;SDS011;62235;52.160;7.526;2023-02-20T16:45:52;13.65;;;7.18;;
73900;SDS011;62235;52.160;7.526;2023-02-20T16:48:18;16.23;;;7.03;;
73900;SDS011;62235;52.160;7.526;2023-02-20T16:50:48;20.33;;;9.63;;
73900;SDS011;62235;52.160;7.526;2023-02-20T16:53:17;21.50;;;9.80;;